Latest Weather Observations for Beaudesert AWS

IDQ60801

Issued at 6:35 pm EST Friday 6 March 2015 (issued every 30 minutes, with the page automatically refreshed every 10 minutes)

About weather observations | Map of weather stations | Latest weather observations for QLD | Other Formats
Station Details ID: 040983 Name: BEAUDESERT DRUMLEY STREET Lat: -27.97 Lon: 152.99 Height: 47.81 m
Data from the previous 72 hours. | See also: Recent months at Beaudesert AWS
Date/Time
EST
Temp
°C
App
Temp
°C
Dew
Point
Rel
Hum
%
Delta-T
°C
Wind Press
QNH
hPa
Press
MSL
hPa
Rain
since 9 am
mm
Dir
 
Spd
km/h
Gust
km/h
Spd
kts
Gust
kts
06/06:30pm 24.7 26.3 18.2 67 4.1 NE 7 13 4 7 1006.5 1006.2 0.0
06/06:00pm 25.7 27.1 17.9 62 4.9 NE 7 17 4 9 1006.2 1005.9 0.0
06/05:30pm 27.0 28.1 18.0 58 5.7 NE 9 15 5 8 1005.9 1005.6 0.0
06/05:00pm 27.9 29.3 17.7 53 6.5 NE 7 13 4 7 1005.9 1005.6 0.0
06/04:30pm 28.3 28.8 16.6 49 7.3 NNE 9 13 5 7 1005.8 1005.5 0.0
06/04:00pm 28.5 29.3 17.4 51 7.0 NE 9 15 5 8 1005.5 1005.2 0.0
06/03:30pm 28.3 28.8 16.6 49 7.3 N 9 17 5 9 1005.6 1005.3 0.0
06/03:00pm 28.9 29.6 16.1 46 8.0 NNW 7 15 4 8 1006.1 1005.8 0.0
06/02:30pm 28.5 29.4 16.7 48 7.4 NE 7 15 4 8 1006.5 1006.2 0.0
06/02:00pm 28.8 29.4 16.7 48 7.6 NNW 9 13 5 7 1006.9 1006.6 0.0
06/01:30pm 28.3 29.9 17.8 53 6.7 ENE 6 11 3 6 1007.7 1007.5 0.0
06/01:00pm 27.4 29.1 18.1 57 5.9 SE 6 9 3 5 1008.4 1008.2 0.0
06/12:30pm 26.9 28.8 16.8 54 6.3 WSW 2 6 1 3 1008.9 1008.7 0.0
06/12:00pm 26.6 28.6 17.9 59 5.5 WNW 4 7 2 4 1009.3 1009.1 0.0
06/11:30am 26.9 29.4 18.2 59 5.5 W 2 7 1 4 1009.7 1009.5 0.0
06/11:00am 25.9 27.7 17.5 59 5.3 E 4 9 2 5 1010.0 1009.8 0.0
06/10:30am 26.3 27.6 17.1 57 5.7 SSE 6 9 3 5 1010.3 1010.1 0.0
06/10:00am 25.5 26.5 16.9 59 5.3 SSW 7 13 4 7 1010.4 1010.2 0.0
06/09:30am 24.9 26.0 17.1 62 4.8 SSE 7 11 4 6 1010.5 1010.3 0.0
06/09:00am 24.3 25.6 17.1 64 4.5 SE 6 11 3 6 1010.3 1010.1 0.0
06/08:30am 24.1 25.4 17.1 65 4.3 SSW 6 7 3 4 1010.2 1010.0 0.0
06/08:00am 23.7 25.1 17.4 68 3.9 SSW 6 7 3 4 1009.9 1009.7 0.0
06/07:30am 23.1 25.1 17.8 72 3.3 SSW 4 6 2 3 1009.7 1009.5 0.0
06/07:00am 22.5 25.2 17.8 75 2.9 CALM 0 0 0 0 1009.5 1009.3 0.0
06/06:30am 21.8 23.9 17.2 75 2.8 WSW 2 6 1 3 1009.4 1009.2 0.0
06/06:00am 22.0 24.4 16.9 73 3.1 CALM 0 0 0 0 1008.9 1008.7 0.0
06/05:30am 22.5 24.2 16.3 68 3.8 SE 2 4 1 2 1008.9 1008.7 0.0
06/05:00am 22.7 24.1 16.3 67 3.9 SE 4 7 2 4 1008.9 1008.7 0.0
06/04:30am 22.9 23.6 16.2 66 4.1 SE 7 9 4 5 1008.6 1008.4 0.0
06/04:00am 22.9 23.8 16.2 66 4.1 SE 6 9 3 5 1008.6 1008.4 0.0
06/03:30am 23.5 22.8 16.3 64 4.4 SE 15 28 8 15 1008.6 1008.4 0.0
06/03:00am 23.7 22.9 16.2 63 4.6 SE 15 24 8 13 1008.7 1008.5 0.0
06/02:30am 23.9 23.1 16.2 62 4.7 SE 15 20 8 11 1008.8 1008.6 0.0
06/02:00am 24.3 24.1 16.6 62 4.7 SE 13 24 7 13 1008.9 1008.7 0.0
06/01:30am 24.3 24.7 16.3 61 4.9 SSE 9 15 5 8 1009.0 1008.8 0.0
06/01:00am 24.7 24.8 16.4 60 5.1 SE 11 22 6 12 1009.0 1008.8 0.0
06/12:30am 24.9 24.9 16.3 59 5.3 SE 11 20 6 11 1009.0 1008.8 0.0
06/12:00am 25.4 25.9 16.5 58 5.5 SSE 9 13 5 7 1008.7 1008.5 0.0
 
Date/Time
EST
Temp
°C
App
Temp
°C
Dew
Point
Rel
Hum
%
Delta-T
°C
Wind Press
QNH
hPa
Press
MSL
hPa
Rain
since 9 am
mm
Dir
 
Spd
km/h
Gust
km/h
Spd
kts
Gust
kts
05/11:30pm 25.9 24.4 16.2 55 6.0 SE 19 28 10 15 1008.3 1008.1 0.0
05/11:00pm 26.0 26.3 17.9 61 5.1 SE 13 20 7 11 1008.0 1007.8 0.0
05/10:30pm 26.8 26.4 18.1 59 5.5 SE 17 28 9 15 1007.9 1007.7 0.0
05/10:00pm 27.4 28.0 18.7 59 5.6 SE 13 24 7 13 1007.6 1007.4 0.0
05/09:30pm 27.9 28.6 16.2 49 7.2 SSE 7 13 4 7 1007.4 1007.2 0.0
05/09:00pm 28.7 29.8 19.6 58 6.0 SE 13 22 7 12 1006.9 1006.6 0.0
05/08:30pm 29.6 31.0 22.6 66 4.8 SE 19 28 10 15 1006.3 1006.0 0.0
05/08:00pm 28.8 28.2 13.5 39 9.1 ESE 9 15 5 8 1005.5 1005.2 0.0
05/07:30pm 29.6 28.4 10.2 30 11.0 NE 7 11 4 6 1004.5 1004.2 0.0
05/07:00pm 30.7 32.5 20.3 53 6.9 NE 11 17 6 9 1004.0 1003.7 0.0
05/06:30pm 31.3 30.6 10.1 27 12.1 WNW 4 13 2 7 1003.5 1003.2 0.0
05/06:00pm 35.0 39.2 20.9 43 9.6 CALM 0 0 0 0 1003.0 1002.7 0.0
05/05:30pm 35.5 41.4 24.1 51 8.0 CALM 0 0 0 0 1002.7 1002.4 0.0
05/05:00pm 36.1 42.0 25.9 55 7.4 NNW 6 7 3 4 1002.4 1002.1 0.0
05/04:30pm 36.1 43.8 27.4 61 6.4 NW 2 6 1 3 1002.3 1002.0 0.0
05/04:00pm 35.8 42.5 26.5 58 6.8 NE 4 7 2 4 1002.3 1002.0 0.0
05/03:30pm 35.6 41.8 26.3 58 6.7 NW 6 15 3 8 1002.4 1002.1 0.0
05/03:00pm 35.4 40.5 25.0 55 7.4 NW 7 13 4 7 1002.6 1002.3 0.0
05/02:30pm 35.2 39.5 24.2 53 7.7 NW 9 19 5 10 1003.0 1002.7 0.0
05/02:00pm 34.8 39.4 24.1 53 7.5 NW 7 13 4 7 1003.7 1003.4 0.0
05/01:30pm 34.2 38.1 22.6 50 8.0 W 6 22 3 12 1004.3 1004.0 0.0
05/01:00pm 33.2 36.0 20.4 47 8.6 NW 6 11 3 6 1004.9 1004.6 0.0
05/12:30pm 32.7 35.2 20.2 47 8.3 NNW 7 11 4 6 1005.5 1005.2 0.0
05/12:00pm 31.9 34.0 20.2 50 7.8 NW 9 15 5 8 1005.9 1005.6 0.0
05/11:30am 31.1 32.6 19.8 51 7.4 WNW 11 19 6 10 1006.5 1006.2 0.0
05/11:00am 30.3 32.2 19.0 50 7.4 NW 7 15 4 8 1007.0 1006.7 0.0
05/10:30am 29.6 33.8 21.8 63 5.3 WNW 2 7 1 4 1007.6 1007.4 0.0
05/10:00am 27.8 30.7 20.6 65 4.8 NW 6 7 3 4 1008.2 1008.0 0.0
05/09:30am 27.1 30.2 20.2 66 4.5 NW 4 9 2 5 1008.4 1008.2 0.0
05/09:00am 26.2 29.7 20.3 70 3.9 SW 2 6 1 3 1008.8 1008.6 0.0
05/08:30am 25.2 28.1 19.8 72 3.5 WNW 4 9 2 5 1009.0 1008.8 0.0
05/08:00am 24.4 27.4 19.2 73 3.3 SSE 2 4 1 2 1009.2 1009.0 0.0
05/07:30am 23.6 27.4 20.1 81 2.3 CALM 0 0 0 0 1009.3 1009.1 0.0
05/07:00am 21.4 24.3 19.0 86 1.5 SSW 2 4 1 2 1009.4 1009.2 0.0
05/06:30am 20.4 23.5 18.7 90 1.1 CALM 0 0 0 0 1009.0 1008.8 0.0
05/06:00am 19.9 23.0 18.6 92 0.8 CALM 0 0 0 0 1008.8 1008.6 0.0
05/05:30am 19.3 21.9 17.4 89 1.2 CALM 0 0 0 0 1008.6 1008.4 0.0
05/05:00am 19.7 22.5 18.0 90 1.1 CALM 0 0 0 0 1008.5 1008.3 0.0
05/04:30am 19.7 22.5 18.0 90 1.1 CALM 0 0 0 0 1008.4 1008.2 0.0
05/04:00am 19.7 22.5 18.0 90 1.1 CALM 0 0 0 0 1008.5 1008.3 0.0
05/03:30am 19.9 22.9 18.4 91 0.9 CALM 0 0 0 0 1008.7 1008.5 0.0
05/03:00am 20.0 22.9 18.1 89 1.2 CALM 0 0 0 0 1008.9 1008.7 0.0
05/02:30am 20.2 23.1 18.1 88 1.3 CALM 0 0 0 0 1009.1 1008.9 0.0
05/02:00am 20.4 23.3 18.3 88 1.3 CALM 0 0 0 0 1009.6 1009.4 0.0
05/01:30am 20.7 23.8 18.6 88 1.3 CALM 0 0 0 0 1010.0 1009.8 0.0
05/01:00am 20.6 23.6 18.4 87 1.4 CALM 0 0 0 0 1010.3 1010.1 0.0
05/12:30am 21.0 24.2 18.8 87 1.4 CALM 0 0 0 0 1010.8 1010.6 0.0
05/12:00am 21.8 25.1 19.2 85 1.7 CALM 0 0 0 0 1010.9 1010.7 0.0
 
Date/Time
EST
Temp
°C
App
Temp
°C
Dew
Point
Rel
Hum
%
Delta-T
°C
Wind Press
QNH
hPa
Press
MSL
hPa
Rain
since 9 am
mm
Dir
 
Spd
km/h
Gust
km/h
Spd
kts
Gust
kts
04/11:30pm 22.5 25.8 19.1 81 2.2 CALM 0 2 0 1 1011.3 1011.1 0.0
04/11:00pm 22.8 25.8 19.2 80 2.3 E 2 4 1 2 1011.7 1011.5 0.0
04/10:30pm 22.9 25.8 19.1 79 2.4 E 2 2 1 1 1011.9 1011.7 0.0
04/10:00pm 23.1 25.9 18.8 77 2.7 ENE 2 4 1 2 1012.0 1011.8 0.0
04/09:30pm 23.4 26.0 18.3 73 3.2 E 2 2 1 1 1012.3 1012.1 0.0
04/09:00pm 24.4 26.7 18.6 70 3.7 NE 4 6 2 3 1012.4 1012.2 0.0
04/08:30pm 24.7 27.3 18.4 68 4.0 NNE 2 6 1 3 1012.3 1012.1 0.0
04/08:00pm 25.2 27.3 18.2 65 4.4 NE 4 6 2 3 1012.0 1011.8 0.0
04/07:30pm 25.5 27.6 18.2 64 4.6 NE 4 6 2 3 1011.7 1011.5 0.0
04/07:00pm 26.0 28.1 18.2 62 4.9 NE 4 9 2 5 1011.3 1011.1 0.0
04/06:30pm 26.9 28.9 17.9 57 5.7 NE 4 7 2 4 1010.9 1010.7 0.0
04/06:00pm 28.2 29.6 17.7 53 6.7 NE 7 13 4 7 1010.6 1010.4 0.0
04/05:30pm 29.3 29.8 17.5 49 7.5 NE 11 13 6 7 1010.4 1010.2 0.0
04/05:00pm 30.1 30.6 17.5 46 8.0 NNE 11 19 6 10 1010.3 1010.1 0.0
04/04:30pm 31.1 32.2 17.0 42 8.9 N 7 13 4 7 1010.1 1009.9 0.0
04/04:00pm 31.2 32.1 16.0 40 9.5 NNE 6 9 3 5 1010.3 1010.1 0.0
04/03:30pm 31.5 32.9 16.3 40 9.5 N 4 9 2 5 1010.4 1010.2 0.0
04/03:00pm 30.8 31.8 16.8 43 8.8 NNW 7 13 4 7 1010.6 1010.4 0.0
04/02:30pm 30.8 32.4 18.2 47 8.1 WNW 7 11 4 6 1011.0 1010.8 0.0
04/02:00pm 30.4 31.8 17.8 46 8.1 NW 7 13 4 7 1011.3 1011.1 0.0
04/01:30pm 29.9 31.3 17.4 47 7.9 WNW 6 11 3 6 1011.9 1011.7 0.0
04/01:00pm 29.7 31.5 18.2 50 7.4 N 6 13 3 7 1012.5 1012.3 0.0
04/12:30pm 29.5 31.3 18.3 51 7.2 W 6 13 3 7 1012.8 1012.6 0.0
04/12:00pm 28.8 30.6 18.3 53 6.7 NW 6 13 3 7 1013.3 1013.1 0.0
04/11:30am 28.1 29.3 18.2 55 6.3 NW 9 13 5 7 1013.8 1013.6 0.0
04/11:00am 27.4 29.0 17.8 55 6.1 WNW 6 11 3 6 1014.2 1014.0 0.0
04/10:30am 27.3 29.3 17.8 56 6.0 NNW 4 7 2 4 1014.4 1014.2 0.0
04/10:00am 26.6 28.6 17.9 59 5.5 NW 4 9 2 5 1014.9 1014.7 0.0
04/09:30am 26.0 28.1 17.1 58 5.5 WNW 2 6 1 3 1014.8 1014.6 0.0
04/09:00am 26.0 28.7 18.7 64 4.7 WSW 2 6 1 3 1015.0 1014.8 0.0
04/08:30am 24.6 26.6 17.8 66 4.3 SW 4 6 2 3 1015.0 1014.8 0.0
04/08:00am 23.5 25.7 18.4 73 3.2 S 4 6 2 3 1015.0 1014.8 0.0
04/07:30am 22.2 24.8 19.2 83 1.9 SSW 4 6 2 3 1014.7 1014.5 0.0
04/07:00am 20.7 23.1 18.8 89 1.2 SW 4 4 2 2 1014.5 1014.3 0.0
04/06:30am 19.9 22.9 18.4 91 0.9 CALM 0 0 0 0 1014.1 1013.9 0.0
04/06:00am 19.7 22.6 18.2 91 0.9 CALM 0 0 0 0 1013.9 1013.7 0.0
04/05:30am 19.6 22.5 18.1 91 0.9 CALM 0 0 0 0 1013.7 1013.5 0.0
04/05:00am 19.8 22.8 18.5 92 0.8 CALM 0 0 0 0 1013.5 1013.3 0.0
04/04:30am 19.7 22.7 18.4 92 0.8 CALM 0 0 0 0 1013.3 1013.1 0.0
04/04:00am 19.7 22.6 18.2 91 0.9 CALM 0 0 0 0 1013.1 1012.9 0.0
04/03:30am 19.4 22.3 18.1 92 0.8 CALM 0 0 0 0 1013.2 1013.0 0.0
04/03:00am 19.2 21.8 17.5 90 1.0 CALM 0 0 0 0 1013.3 1013.1 0.0
04/02:30am 20.0 23.0 18.5 91 0.9 CALM 0 0 0 0 1013.6 1013.4 0.0
04/02:00am 20.7 23.9 18.8 89 1.2 CALM 0 0 0 0 1014.0 1013.8 0.0
04/01:30am 21.1 24.1 18.5 85 1.6 CALM 0 0 0 0 1014.4 1014.2 0.0
04/01:00am 21.0 24.2 18.8 87 1.4 CALM 0 0 0 0 1014.9 1014.7 0.0
04/12:30am 20.7 23.8 18.6 88 1.3 CALM 0 0 0 0 1015.3 1015.1 0.0
04/12:00am 20.6 23.6 18.4 87 1.4 CALM 0 0 0 0 1015.7 1015.5 0.0
 
Date/Time
EST
Temp
°C
App
Temp
°C
Dew
Point
Rel
Hum
%
Delta-T
°C
Wind Press
QNH
hPa
Press
MSL
hPa
Rain
since 9 am
mm
Dir
 
Spd
km/h
Gust
km/h
Spd
kts
Gust
kts
03/11:30pm 20.2 23.1 18.1 88 1.3 CALM 0 0 0 0 1015.8 1015.6 0.0
03/11:00pm 19.8 22.4 17.6 87 1.3 CALM 0 0 0 0 1016.0 1015.8 0.0
03/10:30pm 20.2 23.1 18.1 88 1.3 CALM 0 4 0 2 1015.7 1015.5 0.0
03/10:00pm 20.6 23.6 18.5 88 1.3 CALM 0 0 0 0 1015.8 1015.6 0.0
03/09:30pm 20.8 23.7 18.2 85 1.6 CALM 0 0 0 0 1015.8 1015.6 0.0
03/09:00pm 21.7 24.2 18.1 80 2.2 NE 2 4 1 2 1015.5 1015.3 0.0
03/08:30pm 22.4 24.7 17.8 75 2.9 N 2 4 1 2 1015.3 1015.1 0.0
03/08:00pm 23.5 25.9 17.9 71 3.5 NNW 2 4 1 2 1015.0 1014.8 0.0
03/07:30pm 24.2 26.2 17.9 68 4.0 N 4 6 2 3 1014.5 1014.3 0.0
03/07:00pm 24.9 26.6 18.1 66 4.3 NNE 6 9 3 5 1014.2 1014.0 0.0

Other Formats:

Comma delimited format used in spreadsheet applications
http://www.bom.gov.au/fwo/IDQ60801/IDQ60801.95575.axf

JavaScript Object Notation format (JSON) in row-major order
http://www.bom.gov.au/fwo/IDQ60801/IDQ60801.95575.json